Oslo, Minnesota
Current Conditions -  °F | °C
As of 7:53 PM on Wednesday 26 Nov 2014 (Local Time) from KGFK Reporting Station
Clear Clear  
Wind Chill: -24°   Ceiling: Unl
Heat Index: -9°   Visibility: 10mi
Dew Point: -14°   Wind: 7mph
Humidity: 79%   Direction: 340°NNW
Pressure: 30.53"   Gusts: NA
Location:  48.2°N, 97.13°W
Report Text: KGFK 270153Z 34006KT 10SM CLR M23/M26 A3053 RMK AO2 SLP370 T12281256
Loading
Personal Weather Stations






























Interactive Weather Map New forecast layout! Learn more

10-Day Weather Forecast

Advertisements
Track Severe Weather on mobile